createdAt,value
2023-01-09T00:00:48.754Z,3.46
2023-01-09T00:04:58.765Z,3.45
2023-01-09T00:09:11.398Z,3.45
2023-01-09T00:13:23.012Z,3.47
2023-01-09T00:17:35.512Z,3.47
2023-01-09T00:21:48.729Z,3.47
2023-01-09T00:26:00.971Z,3.48
2023-01-09T00:30:13.203Z,3.50
2023-01-09T00:34:25.167Z,3.50
2023-01-09T00:38:37.269Z,3.49
2023-01-09T00:42:57.849Z,3.48
2023-01-09T00:47:10.161Z,3.49
2023-01-09T00:51:14.893Z,3.48
2023-01-09T00:55:26.687Z,3.49
2023-01-09T00:59:31.643Z,3.50
2023-01-09T01:03:43.964Z,3.50
2023-01-09T01:08:01.577Z,3.50
2023-01-09T01:12:03.270Z,3.50
2023-01-09T01:16:15.151Z,3.50
2023-01-09T01:20:27.395Z,3.48
2023-01-09T01:24:39.483Z,3.47
2023-01-09T01:28:51.590Z,3.45
2023-01-09T01:33:03.413Z,3.45
2023-01-09T01:37:08.709Z,3.43
2023-01-09T01:41:21.013Z,3.43
2023-01-09T01:45:32.188Z,3.43
2023-01-09T01:49:44.271Z,3.43
2023-01-09T01:53:58.951Z,3.42
2023-01-09T01:58:05.996Z,3.42
2023-01-09T02:02:17.976Z,3.42
2023-01-09T02:06:44.229Z,3.41
2023-01-09T02:10:56.241Z,3.41
2023-01-09T02:15:08.441Z,3.40
2023-01-09T02:19:19.169Z,3.39
2023-01-09T02:23:37.443Z,3.38
2023-01-09T02:27:55.353Z,3.38
2023-01-09T02:32:10.388Z,3.36
2023-01-09T02:36:28.693Z,3.35
2023-01-09T02:40:38.995Z,3.34
2023-01-09T02:45:03.081Z,3.34
2023-01-09T02:49:29.278Z,3.33
2023-01-09T02:53:41.214Z,3.31
2023-01-09T02:57:51.597Z,3.28
2023-01-09T03:02:17.559Z,3.27
2023-01-09T03:06:29.581Z,3.28
2023-01-09T03:10:41.523Z,3.27
2023-01-09T03:14:45.165Z,3.27
2023-01-09T03:18:56.853Z,3.27
2023-01-09T03:23:09.240Z,3.28
2023-01-09T03:27:20.899Z,3.26
2023-01-09T03:31:33.457Z,3.29
2023-01-09T03:35:45.753Z,3.29
2023-01-09T03:39:57.841Z,3.27
2023-01-09T03:44:02.648Z,3.25
2023-01-09T03:48:14.431Z,3.25
2023-01-09T03:52:40.241Z,3.25
2023-01-09T03:56:52.177Z,3.27
2023-01-09T04:01:04.104Z,3.27
2023-01-09T04:05:16.553Z,3.30
2023-01-09T04:09:28.635Z,3.32
2023-01-09T04:13:35.353Z,3.34
2023-01-09T04:17:47.417Z,3.34
2023-01-09T04:21:59.574Z,3.34
2023-01-09T04:26:11.601Z,3.34
2023-01-09T04:30:23.938Z,3.33
2023-01-09T04:34:35.820Z,3.30
2023-01-09T04:38:47.982Z,3.30
2023-01-09T04:43:00.312Z,3.29
2023-01-09T04:47:12.131Z,3.30
2023-01-09T04:51:24.543Z,3.31
2023-01-09T04:55:36.436Z,3.32
2023-01-09T04:59:48.451Z,3.30
2023-01-09T05:04:00.686Z,3.28
2023-01-09T05:08:12.942Z,3.29
2023-01-09T05:12:27.032Z,3.27
2023-01-09T05:16:39.492Z,3.25
2023-01-09T05:20:58.494Z,3.24
2023-01-09T05:25:10.492Z,3.24
2023-01-09T05:29:23.155Z,3.24
2023-01-09T05:33:35.302Z,3.25
2023-01-09T05:37:47.306Z,3.27
2023-01-09T05:41:53.689Z,3.26
2023-01-09T05:46:05.771Z,3.25
2023-01-09T05:50:18.098Z,3.23
2023-01-09T05:54:30.640Z,3.23
2023-01-09T05:58:43.025Z,3.21
2023-01-09T06:02:55.180Z,3.19
2023-01-09T06:07:08.027Z,3.20
2023-01-09T06:11:20.485Z,3.20
2023-01-09T06:15:33.128Z,3.19
2023-01-09T06:19:46.071Z,3.19
2023-01-09T06:23:51.595Z,3.20
2023-01-09T06:28:17.863Z,3.18
2023-01-09T06:32:29.805Z,3.18
2023-01-09T06:36:42.042Z,3.18
2023-01-09T06:40:54.272Z,3.18
2023-01-09T06:45:06.493Z,3.17
2023-01-09T06:49:18.917Z,3.16
2023-01-09T06:53:43.698Z,3.17
2023-01-09T06:58:09.551Z,3.17
2023-01-09T07:02:22.140Z,3.16
2023-01-09T07:06:36.609Z,3.17
2023-01-09T07:10:48.948Z,3.18
2023-01-09T07:15:01.151Z,3.18
2023-01-09T07:19:13.031Z,3.18
2023-01-09T07:23:19.478Z,3.18
2023-01-09T07:27:30.145Z,3.19
2023-01-09T07:31:42.074Z,3.20
2023-01-09T07:35:54.435Z,3.21
2023-01-09T07:40:06.886Z,3.21
2023-01-09T07:44:19.354Z,3.21
2023-01-09T07:48:31.617Z,3.22
2023-01-09T07:52:43.919Z,3.23
2023-01-09T07:56:55.615Z,3.23
2023-01-09T08:01:08.188Z,3.21
2023-01-09T08:05:20.189Z,3.22
2023-01-09T08:09:34.168Z,3.22
2023-01-09T08:13:46.082Z,3.21
2023-01-09T08:17:58.779Z,3.22
2023-01-09T08:22:11.125Z,3.21
2023-01-09T08:26:23.820Z,3.21
2023-01-09T08:30:35.843Z,3.22
2023-01-09T08:34:48.045Z,3.22
2023-01-09T08:38:54.817Z,3.22
2023-01-09T08:43:00.419Z,3.20
2023-01-09T08:47:10.952Z,3.19
2023-01-09T08:51:41.699Z,3.19
2023-01-09T08:55:54.249Z,3.19
2023-01-09T09:00:06.338Z,3.16
2023-01-09T09:04:18.452Z,3.17
2023-01-09T09:08:30.484Z,3.17
2023-01-09T09:12:42.464Z,3.16
2023-01-09T09:16:54.737Z,3.15
2023-01-09T09:21:06.708Z,3.14
2023-01-09T09:25:18.715Z,3.13
2023-01-09T09:29:44.593Z,3.12
2023-01-09T09:33:56.795Z,3.11
2023-01-09T09:38:09.206Z,3.08
2023-01-09T09:42:19.594Z,3.08
2023-01-09T09:46:28.220Z,3.07
2023-01-09T09:50:39.270Z,3.06
2023-01-09T09:54:51.736Z,3.06
2023-01-09T09:59:02.384Z,3.04
2023-01-09T10:03:33.039Z,3.02
2023-01-09T10:08:08.722Z,3.01
2023-01-09T10:12:26.018Z,2.98
2023-01-09T10:16:40.971Z,2.96
2023-01-09T10:21:05.170Z,2.94
2023-01-09T10:25:09.912Z,2.94
2023-01-09T10:29:24.933Z,2.94
2023-01-09T10:33:40.110Z,2.91
2023-01-09T10:37:51.752Z,2.91
2023-01-09T10:42:09.718Z,2.91
2023-01-09T10:46:21.474Z,2.90
2023-01-09T10:50:34.069Z,2.91
2023-01-09T10:54:40.400Z,2.90
2023-01-09T10:58:52.456Z,2.91
2023-01-09T11:03:04.248Z,2.90
2023-01-09T11:07:29.816Z,2.90
2023-01-09T11:11:42.310Z,2.89
2023-01-09T11:20:24.183Z,2.92
2023-01-09T11:24:35.791Z,2.96
2023-01-09T11:28:48.227Z,2.97
2023-01-09T11:33:07.373Z,2.99
2023-01-09T11:37:19.871Z,3.00
2023-01-09T11:41:51.767Z,3.00
2023-01-09T11:46:06.457Z,3.01
2023-01-09T11:50:18.176Z,3.02
2023-01-09T11:54:33.201Z,3.02
2023-01-09T11:58:45.640Z,3.02
2023-01-09T12:07:19.605Z,3.05
2023-01-09T12:11:50.827Z,3.06
2023-01-09T12:16:03.050Z,3.06
2023-01-09T12:20:18.067Z,3.06
2023-01-09T12:24:29.020Z,3.07
2023-01-09T12:28:35.956Z,3.08
2023-01-09T12:32:54.182Z,3.09
2023-01-09T12:37:06.458Z,3.09
2023-01-09T12:41:30.338Z,3.09
2023-01-09T12:46:07.832Z,3.08
2023-01-09T12:50:31.559Z,3.08
2023-01-09T12:54:46.903Z,3.07
2023-01-09T12:58:57.331Z,3.08
2023-01-09T13:03:12.469Z,3.07
2023-01-09T13:07:43.841Z,3.07
2023-01-09T13:11:55.981Z,3.07
2023-01-09T13:16:02.543Z,3.07
2023-01-09T13:20:17.856Z,3.07
2023-01-09T13:24:20.136Z,3.07
2023-01-09T13:28:32.344Z,3.07
2023-01-09T13:32:43.084Z,3.08
2023-01-09T13:36:54.076Z,3.09
2023-01-09T13:41:06.000Z,3.09
2023-01-09T13:45:35.459Z,3.10
2023-01-09T13:49:47.528Z,3.11
2023-01-09T13:54:00.194Z,3.11
2023-01-09T13:58:12.702Z,3.11
2023-01-09T14:02:25.539Z,3.12
2023-01-09T14:06:37.477Z,3.12
2023-01-09T14:10:45.420Z,3.15
2023-01-09T14:14:47.201Z,3.15
2023-01-09T14:19:02.420Z,3.15
2023-01-09T14:23:31.519Z,3.16
2023-01-09T14:27:44.783Z,3.16
2023-01-09T14:31:55.383Z,3.17
2023-01-09T14:36:03.182Z,3.18
2023-01-09T14:40:33.936Z,3.18
2023-01-09T14:44:46.860Z,3.17
2023-01-09T14:48:59.082Z,3.17
2023-01-09T14:53:05.805Z,3.17
2023-01-09T14:57:18.513Z,3.19
2023-01-09T15:01:29.307Z,3.19
2023-01-09T15:05:41.914Z,3.19
2023-01-09T15:09:49.556Z,3.19
2023-01-09T15:14:00.455Z,3.19
2023-01-09T15:18:12.924Z,3.19
2023-01-09T15:22:26.874Z,3.20
2023-01-09T15:27:04.091Z,3.20
2023-01-09T15:31:15.894Z,3.20
2023-01-09T15:35:22.651Z,3.20
2023-01-09T15:39:35.082Z,3.20
2023-01-09T15:43:47.211Z,3.19
2023-01-09T15:48:01.815Z,3.20
2023-01-09T15:52:14.402Z,3.20
2023-01-09T15:56:26.980Z,3.20
2023-01-09T16:00:39.109Z,3.21
2023-01-09T16:04:51.608Z,3.21
2023-01-09T16:09:03.862Z,3.21
2023-01-09T16:13:16.157Z,3.21
2023-01-09T16:17:28.101Z,3.22
2023-01-09T16:21:46.069Z,3.21
2023-01-09T16:26:12.416Z,3.22
2023-01-09T16:30:27.399Z,3.21
2023-01-09T16:34:58.383Z,3.20
2023-01-09T16:39:10.538Z,3.21
2023-01-09T16:43:25.523Z,3.20
2023-01-09T16:47:38.233Z,3.20
2023-01-09T16:52:02.858Z,3.20
2023-01-09T16:56:15.350Z,3.20
2023-01-09T17:00:22.497Z,3.19
2023-01-09T17:04:35.000Z,3.18
2023-01-09T17:08:53.319Z,3.18
2023-01-09T17:13:06.526Z,3.19
2023-01-09T17:17:13.506Z,3.19
2023-01-09T17:21:21.649Z,3.19
2023-01-09T17:25:32.622Z,3.18
2023-01-09T17:29:47.057Z,3.18
2023-01-09T17:33:59.180Z,3.17
2023-01-09T17:38:11.704Z,3.17
2023-01-09T17:42:22.423Z,3.17
2023-01-09T17:46:34.268Z,3.17
2023-01-09T17:51:00.474Z,3.16
2023-01-09T17:55:31.890Z,3.17
2023-01-09T17:59:43.324Z,3.18
2023-01-09T18:03:55.375Z,3.17
2023-01-09T18:08:07.451Z,3.19
2023-01-09T18:12:21.191Z,3.19
2023-01-09T18:16:33.534Z,3.18
2023-01-09T18:20:46.271Z,3.17
2023-01-09T18:25:01.110Z,3.16
2023-01-09T18:29:12.621Z,3.17
2023-01-09T18:33:25.004Z,3.18
2023-01-09T18:37:37.259Z,3.18
2023-01-09T18:41:49.281Z,3.19
2023-01-09T18:46:01.614Z,3.21
2023-01-09T18:50:14.101Z,3.23
2023-01-09T18:54:26.383Z,3.24
2023-01-09T18:58:37.199Z,3.24
2023-01-09T19:02:49.757Z,3.24
2023-01-09T19:07:01.597Z,3.24
2023-01-09T19:11:08.038Z,3.26
2023-01-09T19:15:20.204Z,3.28
2023-01-09T19:19:32.648Z,3.32
2023-01-09T19:23:45.414Z,3.34
2023-01-09T19:27:58.541Z,3.34
2023-01-09T19:32:10.669Z,3.35
2023-01-09T19:36:22.775Z,3.36
2023-01-09T19:40:48.669Z,3.35
2023-01-09T19:45:15.416Z,3.35
2023-01-09T19:49:27.271Z,3.33
2023-01-09T19:53:39.489Z,3.31
2023-01-09T19:57:47.170Z,3.32
2023-01-09T20:02:00.018Z,3.33
2023-01-09T20:06:13.150Z,3.34
2023-01-09T20:10:17.181Z,3.36
2023-01-09T20:14:29.474Z,3.36
2023-01-09T20:18:41.969Z,3.36
2023-01-09T20:22:54.274Z,3.35
2023-01-09T20:27:20.581Z,3.36
2023-01-09T20:31:26.956Z,3.38
2023-01-09T20:35:32.095Z,3.41
2023-01-09T20:39:44.323Z,3.44
2023-01-09T20:43:51.106Z,3.48
2023-01-09T20:48:03.342Z,3.51
2023-01-09T20:52:15.749Z,3.53
2023-01-09T20:56:28.189Z,3.55
2023-01-09T21:00:34.200Z,3.56
2023-01-09T21:04:46.393Z,3.57
2023-01-09T21:08:58.444Z,3.57
2023-01-09T21:13:10.595Z,3.56
2023-01-09T21:17:22.375Z,3.55
2023-01-09T21:21:34.826Z,3.56
2023-01-09T21:25:47.359Z,3.57
2023-01-09T21:29:59.903Z,3.57
2023-01-09T21:34:12.326Z,3.56
2023-01-09T21:38:25.088Z,3.52
2023-01-09T21:42:36.505Z,3.50
2023-01-09T21:46:47.400Z,3.48
2023-01-09T21:50:55.870Z,3.48
2023-01-09T21:55:08.517Z,3.47
2023-01-09T21:59:20.868Z,3.43
2023-01-09T22:03:47.248Z,3.42
2023-01-09T22:07:59.370Z,3.41
2023-01-09T22:12:11.585Z,3.41
2023-01-09T22:16:23.514Z,3.41
2023-01-09T22:20:36.467Z,3.42
2023-01-09T22:24:48.581Z,3.42
2023-01-09T22:29:00.798Z,3.44
2023-01-09T22:33:13.109Z,3.45
2023-01-09T22:37:25.359Z,3.47
2023-01-09T22:41:28.656Z,3.49
2023-01-09T22:45:40.973Z,3.52
2023-01-09T22:49:52.616Z,3.53
2023-01-09T22:54:05.793Z,3.52
2023-01-09T22:58:17.882Z,3.50
2023-01-09T23:02:30.604Z,3.48
2023-01-09T23:06:43.147Z,3.46
2023-01-09T23:10:55.788Z,3.44
2023-01-09T23:15:07.811Z,3.46
2023-01-09T23:19:09.816Z,3.42
2023-01-09T23:23:21.766Z,3.39
2023-01-09T23:27:47.783Z,3.37
2023-01-09T23:31:57.915Z,3.37
2023-01-09T23:36:10.537Z,3.37
2023-01-09T23:40:22.821Z,3.39
2023-01-09T23:44:35.563Z,3.41
2023-01-09T23:48:52.734Z,3.43
2023-01-09T23:53:04.689Z,3.43
2023-01-09T23:57:17.039Z,3.43
